createdAt,value
2019-02-22T00:01:36.498Z,18.77
2019-02-22T00:04:40.132Z,21.07
2019-02-22T00:07:43.283Z,20.70
2019-02-22T00:10:46.318Z,19.50
2019-02-22T00:13:49.277Z,21.10
2019-02-22T00:16:52.830Z,21.27
2019-02-22T00:19:55.784Z,21.53
2019-02-22T00:22:59.016Z,21.67
2019-02-22T00:26:01.961Z,22.60
2019-02-22T00:29:05.347Z,22.50
2019-02-22T00:32:08.317Z,23.10
2019-02-22T00:35:11.370Z,20.17
2019-02-22T00:38:14.638Z,22.70
2019-02-22T00:41:18.378Z,20.83
2019-02-22T00:44:21.378Z,21.30
2019-02-22T00:47:24.653Z,24.77
2019-02-22T00:50:27.812Z,20.40
2019-02-22T00:53:30.787Z,21.67
2019-02-22T00:56:34.036Z,20.33
2019-02-22T00:59:37.309Z,22.23
2019-02-22T01:02:40.258Z,19.80
2019-02-22T01:05:43.473Z,21.23
2019-02-22T01:08:46.980Z,20.80
2019-02-22T01:11:49.915Z,22.63
2019-02-22T01:14:53.187Z,20.20
2019-02-22T01:17:56.433Z,18.90
2019-02-22T01:20:59.416Z,17.90
2019-02-22T01:24:03.049Z,15.97
2019-02-22T01:27:07.092Z,16.03
2019-02-22T01:30:10.154Z,14.80
2019-02-22T01:33:13.192Z,15.63
2019-02-22T01:36:16.424Z,17.00
2019-02-22T01:39:19.378Z,14.50
2019-02-22T01:42:22.668Z,15.67
2019-02-22T01:45:25.937Z,16.67
2019-02-22T01:48:29.186Z,16.97
2019-02-22T01:51:32.158Z,16.00
2019-02-22T01:54:35.401Z,18.37
2019-02-22T01:57:38.640Z,18.73
2019-02-22T02:00:41.606Z,16.60
2019-02-22T02:03:44.547Z,17.87
2019-02-22T02:06:47.711Z,17.00
2019-02-22T02:09:50.646Z,19.80
2019-02-22T02:12:53.948Z,18.50
2019-02-22T02:15:57.212Z,17.73
2019-02-22T02:19:00.165Z,15.00
2019-02-22T02:22:03.492Z,17.37
2019-02-22T02:25:07.804Z,17.83
2019-02-22T02:28:10.763Z,18.67
2019-02-22T02:31:14.680Z,16.33
2019-02-22T02:34:17.927Z,17.37
2019-02-22T02:37:21.191Z,18.10
2019-02-22T02:40:24.436Z,19.67
2019-02-22T02:43:28.001Z,20.90
2019-02-22T02:46:31.226Z,21.00
2019-02-22T02:49:34.156Z,17.00
2019-02-22T02:52:37.779Z,19.30
2019-02-22T02:55:41.026Z,17.90
2019-02-22T02:58:43.984Z,18.73
2019-02-22T03:01:46.930Z,19.57
2019-02-22T03:04:50.192Z,20.57
2019-02-22T03:07:53.602Z,17.90
2019-02-22T03:10:56.651Z,16.40
2019-02-22T03:13:59.879Z,19.17
2019-02-22T03:17:02.931Z,19.87
2019-02-22T03:20:06.034Z,18.03
2019-02-22T03:23:09.582Z,18.00
2019-02-22T03:26:12.524Z,17.17
2019-02-22T03:29:15.799Z,16.50
2019-02-22T03:32:18.762Z,18.33
2019-02-22T03:35:22.461Z,18.67
2019-02-22T03:38:25.707Z,17.23
2019-02-22T03:41:33.050Z,18.30
2019-02-22T03:44:33.829Z,15.83
2019-02-22T03:47:36.766Z,16.67
2019-02-22T03:50:40.358Z,18.37
2019-02-22T03:53:47.295Z,17.97
2019-02-22T03:56:50.592Z,16.93
2019-02-22T03:59:53.662Z,17.40
2019-02-22T04:02:56.592Z,15.27
2019-02-22T04:05:59.542Z,17.87
2019-02-22T04:09:04.633Z,18.00
2019-02-22T04:12:08.673Z,16.23
2019-02-22T04:15:11.641Z,16.93
2019-02-22T04:18:14.829Z,16.63
2019-02-22T04:21:18.092Z,17.80
2019-02-22T04:24:21.733Z,15.17
2019-02-22T04:27:24.664Z,15.50
2019-02-22T04:30:27.895Z,16.87
2019-02-22T04:33:30.828Z,16.07
2019-02-22T04:36:34.098Z,15.00
2019-02-22T04:39:37.367Z,16.63
2019-02-22T04:42:40.624Z,14.10
2019-02-22T04:45:43.896Z,15.33
2019-02-22T04:48:47.120Z,12.20
2019-02-22T04:51:50.959Z,13.50
2019-02-22T04:54:54.486Z,13.67
2019-02-22T04:57:57.760Z,14.93
2019-02-22T05:01:00.721Z,14.60
2019-02-22T05:04:03.641Z,16.17
2019-02-22T05:07:06.596Z,13.73
2019-02-22T05:10:09.804Z,13.00
2019-02-22T05:13:12.759Z,12.30
2019-02-22T05:16:15.719Z,13.00
2019-02-22T05:19:19.238Z,14.23
2019-02-22T05:22:22.287Z,13.23
2019-02-22T05:25:25.827Z,13.93
2019-02-22T05:28:28.790Z,13.47
2019-02-22T05:31:32.265Z,13.57
2019-02-22T05:34:35.808Z,13.97
2019-02-22T05:37:38.765Z,13.20
2019-02-22T05:40:42.315Z,13.50
2019-02-22T05:43:45.596Z,13.07
2019-02-22T05:46:59.679Z,15.00
2019-02-22T05:49:53.982Z,14.10
2019-02-22T05:52:57.492Z,15.37
2019-02-22T05:56:00.738Z,16.27
2019-02-22T05:59:04.360Z,13.13
2019-02-22T06:02:07.330Z,12.40
2019-02-22T06:05:10.539Z,12.03
2019-02-22T06:08:13.825Z,14.10
2019-02-22T06:11:16.763Z,13.73
2019-02-22T06:14:19.722Z,13.80
2019-02-22T06:17:22.654Z,12.80
2019-02-22T06:20:25.949Z,14.00
2019-02-22T06:23:28.909Z,12.10
2019-02-22T06:26:31.959Z,13.40
2019-02-22T06:29:34.908Z,13.70
2019-02-22T06:32:38.177Z,13.10
2019-02-22T06:35:41.383Z,13.43
2019-02-22T06:38:46.585Z,12.83
2019-02-22T06:41:49.583Z,13.17
2019-02-22T06:44:52.908Z,12.00
2019-02-22T06:47:56.132Z,12.30
2019-02-22T06:50:59.092Z,13.37
2019-02-22T06:54:03.429Z,12.77
2019-02-22T06:57:06.678Z,13.17
2019-02-22T07:00:10.595Z,14.03
2019-02-22T07:03:13.528Z,13.27
2019-02-22T07:06:16.487Z,11.73
2019-02-22T07:09:19.431Z,12.93
2019-02-22T07:12:32.401Z,12.90
2019-02-22T07:15:35.689Z,13.50
2019-02-22T07:18:39.238Z,15.30
2019-02-22T07:21:52.164Z,12.70
2019-02-22T07:24:47.714Z,13.73
2019-02-22T07:27:50.693Z,14.83
2019-02-22T07:30:53.958Z,13.40
2019-02-22T07:33:56.920Z,11.00
2019-02-22T07:37:00.136Z,13.00
2019-02-22T07:40:03.209Z,12.70
2019-02-22T07:43:08.274Z,11.33
2019-02-22T07:46:11.697Z,12.17
2019-02-22T07:49:23.785Z,10.90
2019-02-22T07:52:26.731Z,9.90
2019-02-22T07:55:30.014Z,13.00
2019-02-22T07:58:32.989Z,11.63
2019-02-22T08:01:46.802Z,12.00
2019-02-22T08:04:40.908Z,12.23
2019-02-22T08:07:43.852Z,13.23
2019-02-22T08:10:46.807Z,14.13
2019-02-22T08:13:50.159Z,13.93
2019-02-22T08:16:53.467Z,16.50
2019-02-22T08:19:56.522Z,14.53
2019-02-22T08:22:59.849Z,18.53
2019-02-22T08:26:02.807Z,18.73
2019-02-22T08:29:05.817Z,18.37
2019-02-22T08:32:09.781Z,16.00
2019-02-22T08:35:12.747Z,19.03
2019-02-22T08:38:16.005Z,17.17
2019-02-22T08:41:19.241Z,16.90
2019-02-22T08:44:22.492Z,17.23
2019-02-22T08:47:25.460Z,19.00
2019-02-22T08:50:28.405Z,19.63
2019-02-22T08:53:31.626Z,18.53
2019-02-22T08:56:34.590Z,19.20
2019-02-22T08:59:37.744Z,19.53
2019-02-22T09:02:40.700Z,18.50
2019-02-22T09:05:43.722Z,19.00
2019-02-22T09:08:47.696Z,18.23
2019-02-22T09:11:50.975Z,23.70
2019-02-22T09:14:54.286Z,17.93
2019-02-22T09:17:58.529Z,18.30
2019-02-22T09:21:01.785Z,15.50
2019-02-22T09:24:04.752Z,14.80
2019-02-22T09:27:07.970Z,14.63
2019-02-22T09:30:11.240Z,14.37
2019-02-22T09:33:14.564Z,13.30
2019-02-22T09:36:18.500Z,12.40
2019-02-22T09:39:21.778Z,14.03
2019-02-22T09:42:24.723Z,13.70
2019-02-22T09:45:27.988Z,12.70
2019-02-22T09:48:31.285Z,11.97
2019-02-22T09:51:34.219Z,14.93
2019-02-22T09:54:37.179Z,13.77
2019-02-22T09:57:40.249Z,13.27
2019-02-22T10:00:43.565Z,13.60
2019-02-22T10:03:47.182Z,19.67
2019-02-22T10:06:50.163Z,17.83
2019-02-22T10:09:53.481Z,19.60
2019-02-22T10:12:56.421Z,17.27
2019-02-22T10:16:00.392Z,20.60
2019-02-22T10:19:04.349Z,18.10
2019-02-22T10:22:07.616Z,19.27
2019-02-22T10:25:12.205Z,19.23
2019-02-22T10:28:18.055Z,19.43
2019-02-22T10:31:20.450Z,18.23
2019-02-22T10:34:23.425Z,16.30
2019-02-22T10:37:26.390Z,15.70
2019-02-22T10:40:29.964Z,13.60
2019-02-22T10:43:33.792Z,15.80
2019-02-22T10:46:36.822Z,14.60
2019-02-22T10:49:40.343Z,15.27
2019-02-22T10:52:43.633Z,14.77
2019-02-22T10:55:46.585Z,16.50
2019-02-22T10:58:49.845Z,14.40
2019-02-22T11:01:52.876Z,14.63
2019-02-22T11:04:56.083Z,13.30
2019-02-22T11:07:59.325Z,12.73
2019-02-22T11:11:02.791Z,11.93
2019-02-22T11:14:07.622Z,15.13
2019-02-22T11:17:10.610Z,14.03
2019-02-22T11:20:14.237Z,14.23
2019-02-22T11:23:17.907Z,14.73
2019-02-22T11:26:20.987Z,14.77
2019-02-22T11:29:24.236Z,13.80
2019-02-22T11:32:31.014Z,13.80
2019-02-22T11:35:33.960Z,14.53
2019-02-22T11:38:37.495Z,13.20
2019-02-22T11:41:40.735Z,11.50
2019-02-22T11:44:43.691Z,9.87
2019-02-22T11:47:46.928Z,9.00
2019-02-22T11:50:50.135Z,6.70
2019-02-22T11:53:53.404Z,5.40
2019-02-22T11:56:56.605Z,5.93
2019-02-22T11:59:59.562Z,5.47
2019-02-22T12:03:15.870Z,6.30
2019-02-22T12:06:08.059Z,6.37
2019-02-22T12:09:11.401Z,7.10
2019-02-22T12:12:14.845Z,7.60
2019-02-22T12:15:18.212Z,7.30
2019-02-22T12:18:21.538Z,6.00
2019-02-22T12:21:25.423Z,6.63
2019-02-22T12:24:28.680Z,6.90
2019-02-22T12:27:31.628Z,7.40
2019-02-22T12:30:34.616Z,7.33
2019-02-22T12:33:37.680Z,5.77
2019-02-22T12:36:40.917Z,4.97
2019-02-22T12:39:44.511Z,6.60
2019-02-22T12:42:47.454Z,5.07
2019-02-22T12:45:50.414Z,4.17
2019-02-22T12:48:53.352Z,4.57
2019-02-22T12:51:56.893Z,6.20
2019-02-22T12:54:59.852Z,5.60
2019-02-22T12:58:03.072Z,5.23
2019-02-22T13:01:06.043Z,5.70
2019-02-22T13:04:09.028Z,8.00
2019-02-22T13:07:12.081Z,6.63
2019-02-22T13:10:16.183Z,6.63
2019-02-22T13:13:19.141Z,7.53
2019-02-22T13:16:22.100Z,6.90
2019-02-22T13:19:25.415Z,6.40
2019-02-22T13:22:28.715Z,8.20
2019-02-22T13:25:31.967Z,6.63
2019-02-22T13:28:34.900Z,7.70
2019-02-22T13:31:37.878Z,7.23
2019-02-22T13:34:41.898Z,7.93
2019-02-22T13:37:44.956Z,6.90
2019-02-22T13:40:49.691Z,6.70
2019-02-22T13:43:52.827Z,6.60
2019-02-22T13:46:56.075Z,7.10
2019-02-22T13:49:59.543Z,6.67
2019-02-22T13:53:02.505Z,6.33
2019-02-22T13:56:05.811Z,6.77
2019-02-22T13:59:09.031Z,6.87
2019-02-22T14:02:12.253Z,6.20
2019-02-22T14:05:15.640Z,5.37
2019-02-22T14:08:18.878Z,6.90
2019-02-22T14:11:22.137Z,8.40
2019-02-22T14:14:25.769Z,8.30
2019-02-22T14:17:28.723Z,6.77
2019-02-22T14:20:31.949Z,7.97
2019-02-22T14:23:35.561Z,8.67
2019-02-22T14:26:38.509Z,8.57
2019-02-22T14:29:42.185Z,7.13
2019-02-22T14:32:45.326Z,6.90
2019-02-22T14:35:48.891Z,7.17
2019-02-22T14:38:51.856Z,9.47
2019-02-22T14:41:54.865Z,8.60
2019-02-22T14:44:58.128Z,6.50
2019-02-22T14:48:01.911Z,8.97
2019-02-22T14:51:05.290Z,8.57
2019-02-22T14:54:08.258Z,8.97
2019-02-22T14:57:13.181Z,9.13
2019-02-22T15:00:18.066Z,7.33
2019-02-22T15:03:21.127Z,7.93
2019-02-22T15:06:24.734Z,7.20
2019-02-22T15:09:27.744Z,7.37
2019-02-22T15:12:31.039Z,9.90
2019-02-22T15:16:00.960Z,7.90
2019-02-22T15:19:11.236Z,8.53
2019-02-22T15:22:14.759Z,7.00
2019-02-22T15:25:18.028Z,8.00
2019-02-22T15:28:21.009Z,6.30
2019-02-22T15:31:24.073Z,6.07
2019-02-22T15:34:27.047Z,7.73
2019-02-22T15:37:30.033Z,5.53
2019-02-22T15:40:33.051Z,5.80
2019-02-22T15:43:36.107Z,6.77
2019-02-22T15:46:39.642Z,7.17
2019-02-22T15:49:43.135Z,8.80
2019-02-22T15:52:47.465Z,6.40
2019-02-22T15:55:51.165Z,8.17
2019-02-22T15:58:54.366Z,7.30
2019-02-22T16:01:57.598Z,6.67
2019-02-22T16:05:05.049Z,7.77
2019-02-22T16:08:09.020Z,7.50
2019-02-22T16:11:12.323Z,7.90
2019-02-22T16:14:15.590Z,7.80
2019-02-22T16:17:18.817Z,8.90
2019-02-22T16:20:21.781Z,10.07
2019-02-22T16:23:24.730Z,8.00
2019-02-22T16:26:30.005Z,8.67
2019-02-22T16:29:33.638Z,8.37
2019-02-22T16:32:36.887Z,8.30
2019-02-22T16:35:40.144Z,9.40
2019-02-22T16:38:43.117Z,9.40
2019-02-22T16:41:46.094Z,8.57
2019-02-22T16:44:49.095Z,7.93
2019-02-22T16:47:52.364Z,8.40
2019-02-22T16:50:55.443Z,8.20
2019-02-22T16:53:58.679Z,7.67
2019-02-22T16:57:02.025Z,7.93
2019-02-22T17:00:05.896Z,8.37
2019-02-22T17:03:11.040Z,8.90
2019-02-22T17:06:14.682Z,9.60
2019-02-22T17:09:18.056Z,8.37
2019-02-22T17:12:21.135Z,10.50
2019-02-22T17:15:24.420Z,9.13
2019-02-22T17:18:27.383Z,9.50
2019-02-22T17:21:30.873Z,8.97
2019-02-22T17:24:34.145Z,7.90
2019-02-22T17:27:37.104Z,9.93
2019-02-22T17:30:40.344Z,7.47
2019-02-22T17:33:43.688Z,10.23
2019-02-22T17:36:46.915Z,9.63
2019-02-22T17:39:50.207Z,10.37
2019-02-22T17:42:53.137Z,12.07
2019-02-22T17:45:56.629Z,11.40
2019-02-22T17:49:00.385Z,10.90
2019-02-22T17:52:03.874Z,11.40
2019-02-22T17:55:07.713Z,11.37
2019-02-22T17:58:11.525Z,10.60
2019-02-22T18:01:15.042Z,11.73
2019-02-22T18:04:18.284Z,11.00
2019-02-22T18:07:21.246Z,10.87
2019-02-22T18:10:24.513Z,12.27
2019-02-22T18:13:28.190Z,11.20
2019-02-22T18:16:31.144Z,11.77
2019-02-22T18:19:34.103Z,11.13
2019-02-22T18:22:37.436Z,13.73
2019-02-22T18:25:40.401Z,12.43
2019-02-22T18:28:44.081Z,11.97
2019-02-22T18:31:47.657Z,10.03
2019-02-22T18:34:50.585Z,11.10
2019-02-22T18:37:54.159Z,10.00
2019-02-22T18:40:57.403Z,11.70
2019-02-22T18:44:00.602Z,10.37
2019-02-22T18:47:03.585Z,9.53
2019-02-22T18:50:07.530Z,11.20
2019-02-22T18:53:10.845Z,8.00
2019-02-22T18:56:14.122Z,11.00
2019-02-22T18:59:17.065Z,9.33
2019-02-22T19:02:20.325Z,9.80
2019-02-22T19:05:23.691Z,9.97
2019-02-22T19:08:32.513Z,9.43
2019-02-22T19:11:31.883Z,8.67
2019-02-22T19:14:35.145Z,9.57
2019-02-22T19:17:38.130Z,9.90
2019-02-22T19:20:41.339Z,9.20
2019-02-22T19:23:44.466Z,9.00
2019-02-22T19:26:47.421Z,8.20
2019-02-22T19:29:50.608Z,9.40
2019-02-22T19:32:53.679Z,8.43
2019-02-22T19:35:56.888Z,10.10
2019-02-22T19:39:00.439Z,8.90
2019-02-22T19:42:03.992Z,8.83
2019-02-22T19:45:07.793Z,9.27
2019-02-22T19:48:11.081Z,7.63
2019-02-22T19:51:14.308Z,9.03
2019-02-22T19:54:17.563Z,8.13
2019-02-22T19:57:20.548Z,7.37
2019-02-22T20:00:23.735Z,8.17
2019-02-22T20:03:27.585Z,9.57
2019-02-22T20:06:30.915Z,9.23
2019-02-22T20:09:34.433Z,8.80
2019-02-22T20:12:37.511Z,7.90
2019-02-22T20:15:40.852Z,8.53
2019-02-22T20:18:44.095Z,7.93
2019-02-22T20:21:47.757Z,7.70
2019-02-22T20:24:51.034Z,8.33
2019-02-22T20:27:53.989Z,9.13
2019-02-22T20:30:57.215Z,10.00
2019-02-22T20:34:00.405Z,8.23
2019-02-22T20:37:03.872Z,7.17
2019-02-22T20:40:07.608Z,7.20
2019-02-22T20:43:10.966Z,8.37
2019-02-22T20:46:14.317Z,6.67
2019-02-22T20:49:17.821Z,5.80
2019-02-22T20:52:20.905Z,7.50
2019-02-22T20:55:25.434Z,8.20
2019-02-22T20:58:28.928Z,7.77
2019-02-22T21:01:31.886Z,6.83
2019-02-22T21:04:35.174Z,7.30
2019-02-22T21:07:38.787Z,8.43
2019-02-22T21:10:41.761Z,9.40
2019-02-22T21:13:45.674Z,7.17
2019-02-22T21:16:48.622Z,6.90
2019-02-22T21:19:52.267Z,6.87
2019-02-22T21:22:55.548Z,7.97
2019-02-22T21:25:58.531Z,7.23
2019-02-22T21:29:01.838Z,7.07
2019-02-22T21:32:04.801Z,7.60
2019-02-22T21:35:08.360Z,6.93
2019-02-22T21:38:12.225Z,8.30
2019-02-22T21:41:16.444Z,8.07
2019-02-22T21:44:20.948Z,7.80
2019-02-22T21:47:24.070Z,9.10
2019-02-22T21:50:27.073Z,8.73
2019-02-22T21:53:30.669Z,8.80
2019-02-22T21:56:33.887Z,7.47
2019-02-22T21:59:37.243Z,7.40
2019-02-22T22:02:40.815Z,7.73
2019-02-22T22:05:44.586Z,7.20
2019-02-22T22:08:48.129Z,7.40
2019-02-22T22:11:51.735Z,8.20
2019-02-22T22:14:54.764Z,8.90
2019-02-22T22:17:58.259Z,7.93
2019-02-22T22:21:02.217Z,7.60
2019-02-22T22:24:05.171Z,7.70
2019-02-22T22:27:08.162Z,7.13
2019-02-22T22:30:11.489Z,7.60
2019-02-22T22:33:14.686Z,7.70
2019-02-22T22:36:17.930Z,6.17
2019-02-22T22:39:20.892Z,7.37
2019-02-22T22:42:23.839Z,6.17
2019-02-22T22:45:27.897Z,7.87
2019-02-22T22:48:31.553Z,6.37
2019-02-22T22:51:34.849Z,6.93
2019-02-22T22:54:38.143Z,5.87
2019-02-22T22:57:41.381Z,6.00
2019-02-22T23:01:07.787Z,6.47
2019-02-22T23:04:11.702Z,6.40
2019-02-22T23:07:15.073Z,6.60
2019-02-22T23:10:18.226Z,7.40
2019-02-22T23:13:21.290Z,6.30
2019-02-22T23:16:24.681Z,8.50
2019-02-22T23:19:28.252Z,6.47
2019-02-22T23:22:31.538Z,7.07
2019-02-22T23:25:34.474Z,7.53
2019-02-22T23:28:37.556Z,7.10
2019-02-22T23:31:40.616Z,7.50
2019-02-22T23:34:43.839Z,7.07
2019-02-22T23:37:48.078Z,5.87
2019-02-22T23:40:51.334Z,8.00
2019-02-22T23:43:54.541Z,7.00
2019-02-22T23:46:57.517Z,6.33
2019-02-22T23:50:00.722Z,8.20
2019-02-22T23:53:03.681Z,7.50
2019-02-22T23:56:06.951Z,7.40
2019-02-22T23:59:10.273Z,7.03
